createdAt,value
2022-09-12T00:01:19.956Z,101458.84
2022-09-12T00:03:47.612Z,101461.97
2022-09-12T00:06:25.460Z,101450.63
2022-09-12T00:08:57.988Z,101454.94
2022-09-12T00:11:25.982Z,101453.03
2022-09-12T00:14:00.739Z,101449.00
2022-09-12T00:16:30.365Z,101451.00
2022-09-12T00:18:57.700Z,101446.09
2022-09-12T00:21:25.333Z,101448.50
2022-09-12T00:23:52.547Z,101436.13
2022-09-12T00:26:21.050Z,101433.69
2022-09-12T00:28:48.616Z,101443.72
2022-09-12T00:31:24.155Z,101438.78
2022-09-12T00:33:51.923Z,101439.25
2022-09-12T00:36:24.572Z,101441.31
2022-09-12T00:38:52.227Z,101429.25
2022-09-12T00:41:33.470Z,101431.94
2022-09-12T00:44:12.248Z,101429.88
2022-09-12T00:47:29.144Z,101427.47
2022-09-12T00:50:08.294Z,101427.00
2022-09-12T00:52:47.242Z,101436.47
2022-09-12T00:55:18.901Z,101432.09
2022-09-12T00:57:54.576Z,101436.97
2022-09-12T01:00:24.979Z,101425.47
2022-09-12T01:03:06.258Z,101426.34
2022-09-12T01:05:38.453Z,101419.56
2022-09-12T01:08:06.155Z,101410.94
2022-09-12T01:10:36.177Z,101407.44
2022-09-12T01:13:08.354Z,101417.66
2022-09-12T01:15:38.579Z,101409.97
2022-09-12T01:18:35.950Z,101402.06
2022-09-12T01:21:51.593Z,101393.00
2022-09-12T01:24:42.239Z,101392.84
2022-09-12T01:27:20.625Z,101400.56
2022-09-12T01:30:22.150Z,101401.13
2022-09-12T01:33:17.645Z,101401.72
2022-09-12T01:36:19.742Z,101396.22
2022-09-12T01:38:59.399Z,101384.91
2022-09-12T01:41:56.014Z,101394.59
2022-09-12T01:44:55.311Z,101380.03
2022-09-12T01:47:34.132Z,101386.63
2022-09-12T01:50:09.861Z,101381.16
2022-09-12T01:53:02.697Z,101370.59
2022-09-12T01:55:52.167Z,101375.88
2022-09-12T01:58:29.253Z,101373.28
2022-09-12T02:01:09.484Z,101371.41
2022-09-12T02:03:53.480Z,101356.56
2022-09-12T02:06:37.725Z,101362.31
2022-09-12T02:09:20.849Z,101375.25
2022-09-12T02:11:51.111Z,101365.50
2022-09-12T02:14:45.598Z,101360.72
2022-09-12T02:17:26.314Z,101355.06
2022-09-12T02:20:00.258Z,101353.81
2022-09-12T02:22:29.897Z,101357.41
2022-09-12T02:25:01.014Z,101357.28
2022-09-12T02:27:41.792Z,101358.91
2022-09-12T02:30:10.789Z,101352.78
2022-09-12T02:32:43.426Z,101358.41
2022-09-12T02:35:41.161Z,101342.63
2022-09-12T02:38:36.857Z,101356.97
2022-09-12T02:41:04.083Z,101349.34
2022-09-12T02:43:31.243Z,101348.28
2022-09-12T02:45:58.218Z,101345.59
2022-09-12T02:48:30.616Z,101346.38
2022-09-12T02:50:57.993Z,101347.06
2022-09-12T02:53:26.654Z,101343.03
2022-09-12T02:55:53.758Z,101334.53
2022-09-12T02:58:29.699Z,101340.63
2022-09-12T03:01:20.874Z,101342.41
2022-09-12T03:04:15.379Z,101339.81
2022-09-12T03:06:52.787Z,101328.38
2022-09-12T03:09:47.387Z,101337.56
2022-09-12T03:12:50.023Z,101340.00
2022-09-12T03:15:46.730Z,101355.56
2022-09-12T03:18:25.619Z,101357.72
2022-09-12T03:21:04.388Z,101360.69
2022-09-12T03:24:08.044Z,101354.31
2022-09-12T03:26:57.779Z,101351.03
2022-09-12T03:29:25.562Z,101345.25
2022-09-12T03:31:56.937Z,101353.63
2022-09-12T03:34:26.648Z,101345.06
2022-09-12T03:36:58.182Z,101356.97
2022-09-12T03:39:27.076Z,101348.66
2022-09-12T03:41:55.448Z,101349.78
2022-09-12T03:44:22.924Z,101348.44
2022-09-12T03:46:50.190Z,101346.09
2022-09-12T03:49:17.641Z,101337.47
2022-09-12T03:51:44.607Z,101337.72
2022-09-12T03:54:11.620Z,101336.28
2022-09-12T03:56:40.494Z,101340.94
2022-09-12T03:59:08.271Z,101333.41
2022-09-12T04:01:35.146Z,101341.31
2022-09-12T04:04:05.083Z,101339.31
2022-09-12T04:06:33.152Z,101342.63
2022-09-12T04:09:00.190Z,101337.78
2022-09-12T04:11:27.160Z,101350.38
2022-09-12T04:13:54.681Z,101340.28
2022-09-12T04:16:21.782Z,101339.47
2022-09-12T04:18:48.917Z,101335.81
2022-09-12T04:21:19.755Z,101335.03
2022-09-12T04:23:46.709Z,101340.63
2022-09-12T04:26:15.070Z,101340.50
2022-09-12T04:28:42.408Z,101335.22
2022-09-12T04:31:17.743Z,101333.72
2022-09-12T04:33:46.014Z,101337.50
2022-09-12T04:36:17.089Z,101334.38
2022-09-12T04:38:47.153Z,101333.53
2022-09-12T04:41:24.017Z,101333.41
2022-09-12T04:44:04.352Z,101324.03
2022-09-12T04:46:38.710Z,101331.88
2022-09-12T04:49:06.357Z,101321.19
2022-09-12T04:51:36.173Z,101328.66
2022-09-12T04:54:11.123Z,101331.03
2022-09-12T04:56:41.134Z,101325.50
2022-09-12T04:59:09.147Z,101321.66
2022-09-12T05:01:36.452Z,101334.59
2022-09-12T05:04:03.850Z,101323.00
2022-09-12T05:06:35.204Z,101306.28
2022-09-12T05:09:05.835Z,101322.56
2022-09-12T05:12:02.792Z,101312.03
2022-09-12T05:14:23.335Z,101320.06
2022-09-12T05:16:50.456Z,101310.16
2022-09-12T05:19:17.756Z,101324.50
2022-09-12T05:21:44.639Z,101326.31
2022-09-12T05:24:12.085Z,101319.09
2022-09-12T05:26:39.063Z,101317.09
2022-09-12T05:29:07.294Z,101314.94
2022-09-12T05:31:35.034Z,101323.97
2022-09-12T05:34:07.067Z,101320.13
2022-09-12T05:36:34.279Z,101321.34
2022-09-12T05:39:01.844Z,101328.75
2022-09-12T05:41:31.169Z,101328.75
2022-09-12T05:44:05.930Z,101323.50
2022-09-12T05:46:40.855Z,101321.53
2022-09-12T05:49:12.063Z,101325.41
2022-09-12T05:51:45.275Z,101321.78
2022-09-12T05:54:15.750Z,101325.50
2022-09-12T05:56:44.315Z,101317.63
2022-09-12T05:59:20.705Z,101325.88
2022-09-12T06:01:48.859Z,101332.13
2022-09-12T06:04:16.214Z,101337.72
2022-09-12T06:06:45.362Z,101342.13
2022-09-12T06:09:14.953Z,101335.63
2022-09-12T06:11:42.449Z,101350.69
2022-09-12T06:14:12.114Z,101347.22
2022-09-12T06:16:39.762Z,101340.41
2022-09-12T06:19:28.080Z,101340.09
2022-09-12T06:21:55.548Z,101333.78
2022-09-12T06:24:22.478Z,101360.38
2022-09-12T06:26:51.973Z,101344.63
2022-09-12T06:29:19.654Z,101352.56
2022-09-12T06:31:46.555Z,101353.84
2022-09-12T06:34:15.863Z,101350.75
2022-09-12T06:36:47.215Z,101352.06
2022-09-12T06:39:17.846Z,101341.47
2022-09-12T06:41:45.813Z,101344.00
2022-09-12T06:44:19.738Z,101333.44
2022-09-12T06:46:47.257Z,101333.31
2022-09-12T06:49:14.327Z,101340.69
2022-09-12T06:51:44.499Z,101339.16
2022-09-12T06:54:16.923Z,101344.16
2022-09-12T06:56:44.916Z,101352.03
2022-09-12T06:59:12.025Z,101349.38
2022-09-12T07:01:40.271Z,101344.50
2022-09-12T07:04:07.383Z,101335.69
2022-09-12T07:06:44.128Z,101334.00
2022-09-12T07:09:14.158Z,101335.09
2022-09-12T07:11:43.158Z,101333.06
2022-09-12T07:14:14.090Z,101331.66
2022-09-12T07:16:41.794Z,101327.84
2022-09-12T07:19:10.103Z,101332.75
2022-09-12T07:21:40.204Z,101343.09
2022-09-12T07:24:10.246Z,101325.84
2022-09-12T07:26:38.897Z,101314.38
2022-09-12T07:29:34.911Z,101302.41
2022-09-12T07:31:53.058Z,101311.31
2022-09-12T07:34:19.913Z,101312.28
2022-09-12T07:36:46.798Z,101305.38
2022-09-12T07:39:13.678Z,101307.31
2022-09-12T07:41:40.630Z,101305.41
2022-09-12T07:44:07.610Z,101302.22
2022-09-12T07:46:35.371Z,101294.38
2022-09-12T07:49:03.052Z,101292.25
2022-09-12T07:51:31.625Z,101289.94
2022-09-12T07:53:59.412Z,101297.34
2022-09-12T07:56:31.101Z,101281.63
2022-09-12T07:58:59.076Z,101288.75
2022-09-12T08:01:27.090Z,101284.00
2022-09-12T08:03:59.726Z,101280.47
2022-09-12T08:06:30.333Z,101285.75
2022-09-12T08:08:59.089Z,101285.50
2022-09-12T08:11:28.719Z,101272.72
2022-09-12T08:13:57.844Z,101266.75
2022-09-12T08:16:31.312Z,101271.53
2022-09-12T08:19:01.064Z,101263.06
2022-09-12T08:21:31.445Z,101273.34
2022-09-12T08:24:02.013Z,101276.56
2022-09-12T08:26:30.280Z,101278.25
2022-09-12T08:28:57.318Z,101274.06
2022-09-12T08:31:26.815Z,101280.16
2022-09-12T08:33:57.325Z,101285.44
2022-09-12T08:36:27.710Z,101288.44
2022-09-12T08:38:59.843Z,101290.25
2022-09-12T08:41:30.471Z,101287.38
2022-09-12T08:44:39.686Z,101288.31
2022-09-12T08:47:35.219Z,101285.63
2022-09-12T08:50:14.900Z,101279.56
2022-09-12T08:53:11.621Z,101284.84
2022-09-12T08:55:56.738Z,101282.69
2022-09-12T08:58:27.168Z,101285.03
2022-09-12T09:01:21.175Z,101274.34
2022-09-12T09:04:28.968Z,101272.44
2022-09-12T09:07:37.848Z,101276.34
2022-09-12T09:10:38.903Z,101269.41
2022-09-12T09:13:46.462Z,101267.09
2022-09-12T09:16:35.052Z,101269.25
2022-09-12T09:19:11.276Z,101259.78
2022-09-12T09:22:04.978Z,101261.25
2022-09-12T09:24:39.309Z,101265.88
2022-09-12T09:27:39.441Z,101259.50
2022-09-12T09:30:13.815Z,101258.63
2022-09-12T09:32:42.813Z,101253.16
2022-09-12T09:35:41.222Z,101239.88
2022-09-12T09:38:49.514Z,101237.13
2022-09-12T09:41:38.638Z,101228.47
2022-09-12T09:44:05.655Z,101231.53
2022-09-12T09:46:33.331Z,101224.31
2022-09-12T09:49:05.575Z,101221.25
2022-09-12T09:51:39.800Z,101225.84
2022-09-12T09:54:40.238Z,101212.31
2022-09-12T09:57:36.127Z,101215.47
2022-09-12T10:00:36.009Z,101214.94
2022-09-12T10:03:14.910Z,101209.31
2022-09-12T10:05:51.847Z,101201.41
2022-09-12T10:08:36.991Z,101200.69
2022-09-12T10:11:16.042Z,101203.28
2022-09-12T10:13:58.426Z,101201.69
2022-09-12T10:16:34.827Z,101202.16
2022-09-12T10:19:04.047Z,101191.75
2022-09-12T10:21:42.712Z,101190.13
2022-09-12T10:24:24.718Z,101195.91
2022-09-12T10:26:58.115Z,101190.69
2022-09-12T10:29:32.518Z,101189.97
2022-09-12T10:32:12.745Z,101194.66
2022-09-12T10:34:45.112Z,101190.16
2022-09-12T10:37:37.503Z,101200.25
2022-09-12T10:40:09.368Z,101185.28
2022-09-12T10:42:53.521Z,101187.88
2022-09-12T10:45:30.305Z,101182.97
2022-09-12T10:48:05.491Z,101188.94
2022-09-12T10:50:42.130Z,101175.81
2022-09-12T10:53:23.564Z,101175.03
2022-09-12T10:56:28.853Z,101175.94
2022-09-12T10:59:16.893Z,101182.38
2022-09-12T11:02:44.002Z,101181.31
2022-09-12T11:05:41.123Z,101183.25
2022-09-12T11:08:17.309Z,101184.34
2022-09-12T11:11:00.100Z,101173.97
2022-09-12T11:14:27.991Z,101182.69
2022-09-12T11:16:59.766Z,101182.91
2022-09-12T11:19:56.182Z,101166.56
2022-09-12T11:23:15.532Z,101161.59
2022-09-12T11:26:15.942Z,101161.88
2022-09-12T11:29:19.874Z,101167.66
2022-09-12T11:32:25.060Z,101172.28
2022-09-12T11:35:12.814Z,101157.53
2022-09-12T11:38:03.860Z,101156.47
2022-09-12T11:40:45.980Z,101151.81
2022-09-12T11:43:53.521Z,101145.81
2022-09-12T11:46:39.449Z,101140.16
2022-09-12T11:49:15.751Z,101136.78
2022-09-12T11:52:17.098Z,101144.34
2022-09-12T11:55:22.587Z,101137.38
2022-09-12T11:57:58.524Z,101140.22
2022-09-12T12:01:03.457Z,101143.31
2022-09-12T12:03:42.884Z,101136.63
2022-09-12T12:06:19.495Z,101123.94
2022-09-12T12:08:48.609Z,101132.91
2022-09-12T12:11:38.389Z,101131.97
2022-09-12T12:14:32.248Z,101140.03
2022-09-12T12:16:59.630Z,101127.69
2022-09-12T12:19:36.352Z,101126.34
2022-09-12T12:22:18.754Z,101119.50
2022-09-12T12:25:02.138Z,101126.13
2022-09-12T12:27:55.374Z,101126.44
2022-09-12T12:30:31.423Z,101131.06
2022-09-12T12:33:08.256Z,101123.00
2022-09-12T12:35:43.208Z,101121.19
2022-09-12T12:38:38.324Z,101120.13
2022-09-12T12:41:17.180Z,101112.00
2022-09-12T12:43:52.451Z,101113.47
2022-09-12T12:46:22.662Z,101103.66
2022-09-12T12:48:54.835Z,101094.47
2022-09-12T12:51:59.064Z,101090.81
2022-09-12T12:54:53.242Z,101090.22
2022-09-12T12:57:51.776Z,101090.13
2022-09-12T13:00:29.981Z,101082.03
2022-09-12T13:03:08.582Z,101091.16
2022-09-12T13:05:45.960Z,101092.31
2022-09-12T13:08:18.962Z,101084.53
2022-09-12T13:11:05.128Z,101089.19
2022-09-12T13:13:36.293Z,101086.22
2022-09-12T13:16:03.802Z,101077.91
2022-09-12T13:18:49.254Z,101088.09
2022-09-12T13:21:20.034Z,101081.94
2022-09-12T13:24:02.946Z,101075.22
2022-09-12T13:26:35.918Z,101075.03
2022-09-12T13:29:18.925Z,101072.56
2022-09-12T13:31:53.948Z,101060.28
2022-09-12T13:34:34.387Z,101062.88
2022-09-12T13:37:30.039Z,101063.91
2022-09-12T13:40:00.929Z,101063.78
2022-09-12T13:42:42.616Z,101064.06
2022-09-12T13:45:27.576Z,101054.16
2022-09-12T13:48:00.874Z,101056.38
2022-09-12T13:50:46.435Z,101053.38
2022-09-12T13:53:18.098Z,101050.69
2022-09-12T13:55:57.306Z,101051.22
2022-09-12T13:58:36.038Z,101052.66
2022-09-12T14:01:10.710Z,101043.69
2022-09-12T14:04:13.397Z,101058.38
2022-09-12T14:06:50.255Z,101058.25
2022-09-12T14:09:31.097Z,101051.81
2022-09-12T14:11:58.896Z,101050.31
2022-09-12T14:14:49.288Z,101040.88
2022-09-12T14:17:29.829Z,101034.03
2022-09-12T14:19:59.359Z,101028.31
2022-09-12T14:22:29.875Z,101025.41
2022-09-12T14:24:59.292Z,101013.25
2022-09-12T14:27:39.238Z,101025.09
2022-09-12T14:30:26.141Z,101010.28
2022-09-12T14:33:11.097Z,101005.81
2022-09-12T14:35:44.838Z,100999.94
2022-09-12T14:38:26.119Z,101006.59
2022-09-12T14:41:03.148Z,101005.53
2022-09-12T14:43:32.905Z,101008.22
2022-09-12T14:46:23.250Z,101003.53
2022-09-12T14:48:57.879Z,101002.66
2022-09-12T14:51:36.849Z,101007.63
2022-09-12T14:54:04.484Z,100998.56
2022-09-12T14:56:44.905Z,100993.69
2022-09-12T14:59:28.578Z,100992.22
2022-09-12T15:02:17.173Z,100991.09
2022-09-12T15:04:47.331Z,100985.88
2022-09-12T15:07:34.935Z,100987.19
2022-09-12T15:10:06.604Z,100973.13
2022-09-12T15:12:33.853Z,100973.19
2022-09-12T15:15:21.045Z,100978.28
2022-09-12T15:17:47.996Z,100969.22
2022-09-12T15:20:14.986Z,100965.97
2022-09-12T15:22:42.782Z,100956.22
2022-09-12T15:25:13.080Z,100954.41
2022-09-12T15:27:43.112Z,100957.59
2022-09-12T15:30:13.280Z,100958.19
2022-09-12T15:32:43.539Z,100962.06
2022-09-12T15:35:22.540Z,100951.97
2022-09-12T15:37:50.047Z,100957.22
2022-09-12T15:40:17.581Z,100954.69
2022-09-12T15:42:44.748Z,100946.69
2022-09-12T15:45:24.319Z,100948.56
2022-09-12T15:47:51.190Z,100932.91
2022-09-12T15:50:18.249Z,100924.97
2022-09-12T15:52:45.439Z,100922.56
2022-09-12T15:55:22.351Z,100924.69
2022-09-12T15:57:49.886Z,100918.81
2022-09-12T16:00:18.167Z,100930.09
2022-09-12T16:02:47.668Z,100925.66
2022-09-12T16:05:20.702Z,100925.50
2022-09-12T16:07:49.235Z,100919.13
2022-09-12T16:10:19.160Z,100905.31
2022-09-12T16:12:46.389Z,100906.44
2022-09-12T16:15:18.346Z,100913.72
2022-09-12T16:17:45.484Z,100909.97
2022-09-12T16:20:13.401Z,100903.50
2022-09-12T16:22:40.932Z,100897.91
2022-09-12T16:25:08.939Z,100893.94
2022-09-12T16:27:36.852Z,100885.63
2022-09-12T16:30:06.577Z,100881.41
2022-09-12T16:32:33.535Z,100882.53
2022-09-12T16:35:00.797Z,100867.16
2022-09-12T16:37:28.073Z,100862.06
2022-09-12T16:39:55.072Z,100857.66
2022-09-12T16:42:22.321Z,100858.47
2022-09-12T16:44:49.233Z,100856.53
2022-09-12T16:47:16.266Z,100867.03
2022-09-12T16:49:45.827Z,100865.13
2022-09-12T16:52:16.440Z,100869.28
2022-09-12T16:54:46.836Z,100882.38
2022-09-12T16:57:13.833Z,100880.63
2022-09-12T16:59:40.879Z,100887.41
2022-09-12T17:02:12.181Z,100878.38
2022-09-12T17:04:39.557Z,100879.34
2022-09-12T17:07:07.106Z,100871.72
2022-09-12T17:09:34.506Z,100866.09
2022-09-12T17:12:01.805Z,100870.50
2022-09-12T17:14:28.719Z,100869.59
2022-09-12T17:16:55.720Z,100867.16
2022-09-12T17:19:26.745Z,100857.13
2022-09-12T17:21:54.214Z,100854.97
2022-09-12T17:24:21.518Z,100863.25
2022-09-12T17:26:49.048Z,100861.56
2022-09-12T17:29:16.770Z,100858.31
2022-09-12T17:31:45.241Z,100869.09
2022-09-12T17:34:14.551Z,100862.16
2022-09-12T17:36:45.574Z,100863.81
2022-09-12T17:39:14.509Z,100868.19
2022-09-12T17:41:42.685Z,100857.72
2022-09-12T17:44:13.772Z,100861.03
2022-09-12T17:46:41.792Z,100852.09
2022-09-12T17:49:16.577Z,100853.50
2022-09-12T17:51:44.219Z,100864.56
2022-09-12T17:54:15.772Z,100857.34
2022-09-12T17:56:45.582Z,100855.59
2022-09-12T17:59:21.718Z,100865.97
2022-09-12T18:02:08.281Z,100859.38
2022-09-12T18:04:35.636Z,100867.63
2022-09-12T18:07:02.561Z,100868.22
2022-09-12T18:09:30.688Z,100882.69
2022-09-12T18:11:57.836Z,100884.75
2022-09-12T18:14:27.684Z,100888.34
2022-09-12T18:16:57.048Z,100887.66
2022-09-12T18:19:24.534Z,100892.78
2022-09-12T18:21:51.455Z,100893.03
2022-09-12T18:24:19.329Z,100892.56
2022-09-12T18:26:46.265Z,100889.78
2022-09-12T18:29:16.826Z,100891.00
2022-09-12T18:31:44.725Z,100899.41
2022-09-12T18:34:13.753Z,100906.84
2022-09-12T18:36:50.303Z,100902.06
2022-09-12T18:39:18.257Z,100898.38
2022-09-12T18:41:45.185Z,100893.13
2022-09-12T18:44:13.059Z,100883.28
2022-09-12T18:46:40.276Z,100886.06
2022-09-12T18:49:07.823Z,100890.34
2022-09-12T18:51:36.600Z,100886.47
2022-09-12T18:54:12.611Z,100887.53
2022-09-12T18:56:43.431Z,100884.28
2022-09-12T18:59:12.894Z,100876.84
2022-09-12T19:01:40.190Z,100879.44
2022-09-12T19:04:09.958Z,100882.38
2022-09-12T19:06:43.123Z,100883.34
2022-09-12T19:09:11.545Z,100888.19
2022-09-12T19:11:42.542Z,100883.88
2022-09-12T19:14:09.425Z,100884.41
2022-09-12T19:16:37.568Z,100895.97
2022-09-12T19:19:04.558Z,100890.34
2022-09-12T19:21:32.929Z,100878.66
2022-09-12T19:24:03.500Z,100869.78
2022-09-12T19:26:30.781Z,100866.19
2022-09-12T19:28:58.183Z,100878.09
2022-09-12T19:31:26.107Z,100881.28
2022-09-12T19:33:53.232Z,100869.66
2022-09-12T19:36:43.691Z,100866.22
2022-09-12T19:39:09.953Z,100851.47
2022-09-12T19:41:37.133Z,100859.41
2022-09-12T19:44:05.114Z,100859.41
2022-09-12T19:46:32.649Z,100867.88
2022-09-12T19:48:59.650Z,100859.84
2022-09-12T19:51:26.701Z,100874.09
2022-09-12T19:53:53.965Z,100866.50
2022-09-12T19:56:21.892Z,100869.97
2022-09-12T19:58:55.744Z,100861.59
2022-09-12T20:01:28.270Z,100873.31
2022-09-12T20:03:57.312Z,100873.16
2022-09-12T20:06:25.072Z,100873.66
2022-09-12T20:08:53.041Z,100877.00
2022-09-12T20:11:22.069Z,100881.81
2022-09-12T20:13:49.893Z,100890.19
2022-09-12T20:16:28.482Z,100905.31
2022-09-12T20:19:02.529Z,100907.16
2022-09-12T20:21:32.269Z,100906.16
2022-09-12T20:24:13.624Z,100910.34
2022-09-12T20:26:41.127Z,100916.19
2022-09-12T20:29:09.470Z,100922.47
2022-09-12T20:31:39.567Z,100932.09
2022-09-12T20:34:07.514Z,100931.28
2022-09-12T20:36:34.974Z,100929.78
2022-09-12T20:39:03.859Z,100939.44
2022-09-12T20:41:34.054Z,100922.06
2022-09-12T20:44:01.091Z,100924.06
2022-09-12T20:46:28.929Z,100936.31
2022-09-12T20:48:56.501Z,100937.34
2022-09-12T20:51:26.499Z,100938.09
2022-09-12T20:53:55.538Z,100939.50
2022-09-12T20:56:23.706Z,100930.47
2022-09-12T20:58:51.214Z,100927.06
2022-09-12T21:01:18.262Z,100930.88
2022-09-12T21:03:45.911Z,100938.78
2022-09-12T21:06:17.064Z,100947.50
2022-09-12T21:08:45.245Z,100943.44
2022-09-12T21:11:12.375Z,100932.25
2022-09-12T21:13:39.857Z,100933.63
2022-09-12T21:16:18.895Z,100918.94
2022-09-12T21:18:46.436Z,100911.81
2022-09-12T21:21:16.083Z,100917.25
2022-09-12T21:23:43.058Z,100909.56
2022-09-12T21:26:10.279Z,100913.75
2022-09-12T21:28:37.196Z,100916.47
2022-09-12T21:31:04.590Z,100922.97
2022-09-12T21:33:31.572Z,100912.66
2022-09-12T21:36:04.206Z,100901.44
2022-09-12T21:38:31.655Z,100898.38
2022-09-12T21:41:14.972Z,100911.63
2022-09-12T21:43:43.415Z,100910.81
2022-09-12T21:46:11.267Z,100906.28
2022-09-12T21:48:38.459Z,100899.97
2022-09-12T21:51:05.829Z,100899.72
2022-09-12T21:53:32.756Z,100893.59
2022-09-12T21:56:05.744Z,100890.22
2022-09-12T21:58:32.766Z,100886.06
2022-09-12T22:01:00.976Z,100889.78
2022-09-12T22:03:29.322Z,100882.25
2022-09-12T22:06:02.104Z,100872.66
2022-09-12T22:08:31.058Z,100879.16
2022-09-12T22:11:05.741Z,100865.06
2022-09-12T22:13:32.683Z,100862.38
2022-09-12T22:16:01.047Z,100861.91
2022-09-12T22:18:28.018Z,100860.34
2022-09-12T22:21:12.286Z,100859.69
2022-09-12T22:23:59.664Z,100856.00
2022-09-12T22:26:27.557Z,100862.13
2022-09-12T22:28:54.533Z,100864.75
2022-09-12T22:31:21.845Z,100872.03
2022-09-12T22:33:48.912Z,100868.63
2022-09-12T22:36:15.843Z,100878.25
2022-09-12T22:38:42.777Z,100897.09
2022-09-12T22:41:12.084Z,100890.81
2022-09-12T22:43:39.215Z,100889.88
2022-09-12T22:46:12.408Z,100888.59
2022-09-12T22:48:40.625Z,100896.41
2022-09-12T22:51:07.943Z,100891.50
2022-09-12T22:53:36.257Z,100894.09
2022-09-12T22:56:05.073Z,100889.88
2022-09-12T22:58:34.062Z,100888.19
2022-09-12T23:01:06.069Z,100881.47
2022-09-12T23:03:33.760Z,100876.31
2022-09-12T23:06:00.713Z,100873.53
2022-09-12T23:08:29.599Z,100874.72
2022-09-12T23:11:17.688Z,100874.81
2022-09-12T23:13:47.530Z,100877.50
2022-09-12T23:16:23.793Z,100876.66
2022-09-12T23:18:51.521Z,100871.69
2022-09-12T23:21:21.655Z,100873.75
2022-09-12T23:23:48.908Z,100870.69
2022-09-12T23:26:18.365Z,100870.75
2022-09-12T23:28:50.645Z,100872.91
2022-09-12T23:31:17.586Z,100862.31
2022-09-12T23:33:45.084Z,100862.28
2022-09-12T23:36:14.421Z,100847.94
2022-09-12T23:38:46.561Z,100847.34
2022-09-12T23:41:17.409Z,100843.34
2022-09-12T23:43:45.528Z,100834.34
2022-09-12T23:46:14.589Z,100832.13
2022-09-12T23:48:42.794Z,100838.78
2022-09-12T23:51:10.825Z,100836.38
2022-09-12T23:53:38.531Z,100836.19
2022-09-12T23:56:06.897Z,100825.91
2022-09-12T23:58:34.031Z,100827.72
